sensor_id;sensor_type;location;lat;lon;timestamp;pressure;altitude;pressure_sealevel;temperature;humidity
9784;BME280;4931;44.874;-1.092;2022-12-18T00:03:42;100887.53;;;0.22;100.00
9784;BME280;4931;44.874;-1.092;2022-12-18T00:06:08;100892.94;;;0.36;100.00
9784;BME280;4931;44.874;-1.092;2022-12-18T00:08:34;100874.66;;;0.38;100.00
9784;BME280;4931;44.874;-1.092;2022-12-18T00:11:07;100865.72;;;0.44;100.00
9784;BME280;4931;44.874;-1.092;2022-12-18T00:13:33;100867.38;;;0.52;100.00
9784;BME280;4931;44.874;-1.092;2022-12-18T00:16:04;100839.75;;;0.49;100.00
9784;BME280;4931;44.874;-1.092;2022-12-18T00:18:30;100845.34;;;0.55;100.00
9784;BME280;4931;44.874;-1.092;2022-12-18T00:21:00;100840.97;;;0.54;100.00
9784;BME280;4931;44.874;-1.092;2022-12-18T00:23:27;100829.34;;;0.60;100.00
9784;BME280;4931;44.874;-1.092;2022-12-18T00:25:52;100814.81;;;0.61;100.00
9784;BME280;4931;44.874;-1.092;2022-12-18T00:28:18;100817.50;;;0.68;100.00
9784;BME280;4931;44.874;-1.092;2022-12-18T00:30:43;100816.66;;;0.67;100.00
9784;BME280;4931;44.874;-1.092;2022-12-18T00:33:11;100800.63;;;0.72;100.00
9784;BME280;4931;44.874;-1.092;2022-12-18T00:35:37;100803.09;;;0.80;100.00
9784;BME280;4931;44.874;-1.092;2022-12-18T00:38:02;100789.81;;;0.79;100.00
9784;BME280;4931;44.874;-1.092;2022-12-18T00:40:28;100780.47;;;0.81;100.00
9784;BME280;4931;44.874;-1.092;2022-12-18T00:42:53;100790.22;;;0.82;100.00
9784;BME280;4931;44.874;-1.092;2022-12-18T00:45:25;100794.81;;;0.75;100.00
9784;BME280;4931;44.874;-1.092;2022-12-18T00:47:51;100799.81;;;0.72;100.00
9784;BME280;4931;44.874;-1.092;2022-12-18T00:50:17;100797.31;;;0.70;100.00
9784;BME280;4931;44.874;-1.092;2022-12-18T00:52:42;100799.41;;;0.68;100.00
9784;BME280;4931;44.874;-1.092;2022-12-18T00:55:08;100794.44;;;0.65;100.00
9784;BME280;4931;44.874;-1.092;2022-12-18T00:57:34;100792.38;;;0.60;100.00
9784;BME280;4931;44.874;-1.092;2022-12-18T00:59:59;100798.22;;;0.51;100.00
9784;BME280;4931;44.874;-1.092;2022-12-18T01:02:25;100800.50;;;0.47;100.00
9784;BME280;4931;44.874;-1.092;2022-12-18T01:04:50;100805.09;;;0.46;100.00
9784;BME280;4931;44.874;-1.092;2022-12-18T01:07:16;100812.78;;;0.36;100.00
9784;BME280;4931;44.874;-1.092;2022-12-18T01:09:41;100806.97;;;0.39;100.00
9784;BME280;4931;44.874;-1.092;2022-12-18T01:12:07;100813.22;;;0.33;100.00
9784;BME280;4931;44.874;-1.092;2022-12-18T01:14:32;100813.81;;;0.35;100.00
9784;BME280;4931;44.874;-1.092;2022-12-18T01:16:58;100815.69;;;0.41;100.00
9784;BME280;4931;44.874;-1.092;2022-12-18T01:19:23;100819.84;;;0.37;100.00
9784;BME280;4931;44.874;-1.092;2022-12-18T01:21:49;100834.38;;;0.36;100.00
9784;BME280;4931;44.874;-1.092;2022-12-18T01:24:15;100819.88;;;0.24;100.00
9784;BME280;4931;44.874;-1.092;2022-12-18T01:26:40;100830.69;;;0.24;100.00
9784;BME280;4931;44.874;-1.092;2022-12-18T01:29:06;100810.94;;;0.23;100.00
9784;BME280;4931;44.874;-1.092;2022-12-18T01:31:33;100819.03;;;0.30;100.00
9784;BME280;4931;44.874;-1.092;2022-12-18T01:34:00;100828.16;;;0.29;100.00
9784;BME280;4931;44.874;-1.092;2022-12-18T01:36:31;100830.25;;;0.27;100.00
9784;BME280;4931;44.874;-1.092;2022-12-18T01:39:04;100828.34;;;0.34;100.00
9784;BME280;4931;44.874;-1.092;2022-12-18T01:41:31;100821.50;;;0.31;100.00
9784;BME280;4931;44.874;-1.092;2022-12-18T01:47:56;100821.53;;;0.38;100.00
9784;BME280;4931;44.874;-1.092;2022-12-18T01:50:34;100827.72;;;0.39;100.00
9784;BME280;4931;44.874;-1.092;2022-12-18T01:53:22;100829.41;;;0.40;100.00
9784;BME280;4931;44.874;-1.092;2022-12-18T01:55:50;100821.88;;;0.48;100.00
9784;BME280;4931;44.874;-1.092;2022-12-18T01:58:18;100819.00;;;0.50;100.00
9784;BME280;4931;44.874;-1.092;2022-12-18T02:00:44;100820.44;;;0.53;100.00
9784;BME280;4931;44.874;-1.092;2022-12-18T02:03:10;100799.88;;;0.52;100.00
9784;BME280;4931;44.874;-1.092;2022-12-18T02:05:47;100790.97;;;0.44;100.00
9784;BME280;4931;44.874;-1.092;2022-12-18T02:08:25;100807.97;;;0.52;100.00
9784;BME280;4931;44.874;-1.092;2022-12-18T02:13:41;100792.00;;;0.43;100.00
9784;BME280;4931;44.874;-1.092;2022-12-18T02:16:21;100794.50;;;0.45;100.00
9784;BME280;4931;44.874;-1.092;2022-12-18T02:18:51;100786.78;;;0.48;100.00
9784;BME280;4931;44.874;-1.092;2022-12-18T02:21:30;100776.19;;;0.54;100.00
9784;BME280;4931;44.874;-1.092;2022-12-18T02:24:18;100772.00;;;0.58;100.00
9784;BME280;4931;44.874;-1.092;2022-12-18T02:26:53;100757.25;;;0.60;100.00
9784;BME280;4931;44.874;-1.092;2022-12-18T02:29:26;100760.38;;;0.64;100.00
9784;BME280;4931;44.874;-1.092;2022-12-18T02:31:57;100749.16;;;0.67;100.00
9784;BME280;4931;44.874;-1.092;2022-12-18T02:34:26;100743.31;;;0.70;100.00
9784;BME280;4931;44.874;-1.092;2022-12-18T02:36:54;100744.34;;;0.69;100.00
9784;BME280;4931;44.874;-1.092;2022-12-18T02:39:21;100743.09;;;0.72;100.00
9784;BME280;4931;44.874;-1.092;2022-12-18T02:41:49;100736.66;;;0.73;100.00
9784;BME280;4931;44.874;-1.092;2022-12-18T02:44:15;100728.38;;;0.68;100.00
9784;BME280;4931;44.874;-1.092;2022-12-18T02:46:43;100738.69;;;0.77;100.00
9784;BME280;4931;44.874;-1.092;2022-12-18T02:54:57;100722.31;;;0.72;100.00
9784;BME280;4931;44.874;-1.092;2022-12-18T03:00:07;100721.25;;;0.80;100.00
9784;BME280;4931;44.874;-1.092;2022-12-18T03:02:41;100704.22;;;0.79;100.00
9784;BME280;4931;44.874;-1.092;2022-12-18T03:05:21;100703.78;;;0.82;100.00
9784;BME280;4931;44.874;-1.092;2022-12-18T03:08:00;100694.03;;;0.81;100.00
9784;BME280;4931;44.874;-1.092;2022-12-18T03:10:29;100697.97;;;0.86;100.00
9784;BME280;4931;44.874;-1.092;2022-12-18T03:13:13;100694.63;;;0.83;100.00
9784;BME280;4931;44.874;-1.092;2022-12-18T03:15:45;100689.84;;;0.86;100.00
9784;BME280;4931;44.874;-1.092;2022-12-18T03:18:23;100688.78;;;0.87;100.00
9784;BME280;4931;44.874;-1.092;2022-12-18T03:20:52;100691.66;;;0.92;100.00
9784;BME280;4931;44.874;-1.092;2022-12-18T03:23:24;100682.75;;;0.91;100.00
9784;BME280;4931;44.874;-1.092;2022-12-18T03:25:54;100682.75;;;0.91;100.00
9784;BME280;4931;44.874;-1.092;2022-12-18T03:28:22;100688.41;;;0.83;100.00
9784;BME280;4931;44.874;-1.092;2022-12-18T03:30:52;100691.72;;;0.85;100.00
9784;BME280;4931;44.874;-1.092;2022-12-18T03:33:41;100692.56;;;0.86;100.00
9784;BME280;4931;44.874;-1.092;2022-12-18T03:36:09;100693.41;;;0.79;100.00
9784;BME280;4931;44.874;-1.092;2022-12-18T03:38:35;100680.34;;;0.76;100.00
9784;BME280;4931;44.874;-1.092;2022-12-18T03:41:10;100702.91;;;0.89;100.00
9784;BME280;4931;44.874;-1.092;2022-12-18T03:46:42;100691.94;;;0.83;100.00
9784;BME280;4931;44.874;-1.092;2022-12-18T03:49:25;100684.88;;;0.82;100.00
9784;BME280;4931;44.874;-1.092;2022-12-18T03:54:43;100699.59;;;0.87;100.00
9784;BME280;4931;44.874;-1.092;2022-12-18T03:57:15;100704.59;;;0.90;100.00
9784;BME280;4931;44.874;-1.092;2022-12-18T03:59:44;100697.34;;;0.83;100.00
9784;BME280;4931;44.874;-1.092;2022-12-18T04:02:11;100711.66;;;0.91;100.00
9784;BME280;4931;44.874;-1.092;2022-12-18T04:04:38;100701.06;;;0.82;100.00
9784;BME280;4931;44.874;-1.092;2022-12-18T04:07:06;100722.88;;;0.88;100.00
9784;BME280;4931;44.874;-1.092;2022-12-18T04:09:32;100719.97;;;0.82;100.00
9784;BME280;4931;44.874;-1.092;2022-12-18T04:11:59;100721.06;;;0.81;100.00
9784;BME280;4931;44.874;-1.092;2022-12-18T04:14:25;100721.19;;;0.87;100.00
9784;BME280;4931;44.874;-1.092;2022-12-18T04:16:50;100722.50;;;0.77;100.00
9784;BME280;4931;44.874;-1.092;2022-12-18T04:19:16;100725.81;;;0.79;100.00
9784;BME280;4931;44.874;-1.092;2022-12-18T04:21:41;100718.75;;;0.78;100.00
9784;BME280;4931;44.874;-1.092;2022-12-18T04:24:07;100712.09;;;0.81;100.00
9784;BME280;4931;44.874;-1.092;2022-12-18T04:26:33;100721.00;;;0.88;100.00
9784;BME280;4931;44.874;-1.092;2022-12-18T04:28:59;100721.38;;;0.92;100.00
9784;BME280;4931;44.874;-1.092;2022-12-18T04:31:24;100721.00;;;0.88;100.00
9784;BME280;4931;44.874;-1.092;2022-12-18T04:33:50;100730.75;;;0.89;100.00
9784;BME280;4931;44.874;-1.092;2022-12-18T04:36:15;100734.72;;;0.87;100.00
9784;BME280;4931;44.874;-1.092;2022-12-18T04:38:41;100736.38;;;0.88;100.00
9784;BME280;4931;44.874;-1.092;2022-12-18T04:41:06;100728.66;;;0.91;100.00
9784;BME280;4931;44.874;-1.092;2022-12-18T04:43:32;100718.63;;;0.98;100.00
9784;BME280;4931;44.874;-1.092;2022-12-18T04:46:05;100711.19;;;0.94;100.00
9784;BME280;4931;44.874;-1.092;2022-12-18T04:48:31;100717.78;;;1.05;100.00
9784;BME280;4931;44.874;-1.092;2022-12-18T04:50:57;100706.16;;;1.04;100.00
9784;BME280;4931;44.874;-1.092;2022-12-18T04:53:22;100705.72;;;1.07;100.00
9784;BME280;4931;44.874;-1.092;2022-12-18T04:55:48;100692.81;;;1.09;100.00
9784;BME280;4931;44.874;-1.092;2022-12-18T04:58:13;100694.47;;;1.10;100.00
9784;BME280;4931;44.874;-1.092;2022-12-18T05:00:39;100683.22;;;1.13;100.00
9784;BME280;4931;44.874;-1.092;2022-12-18T05:03:04;100666.66;;;1.03;100.00
9784;BME280;4931;44.874;-1.092;2022-12-18T05:05:30;100676.00;;;1.07;100.00
9784;BME280;4931;44.874;-1.092;2022-12-18T05:07:55;100668.94;;;1.06;100.00
9784;BME280;4931;44.874;-1.092;2022-12-18T05:10:21;100679.31;;;1.09;100.00
9784;BME280;4931;44.874;-1.092;2022-12-18T05:12:46;100682.00;;;1.09;100.00
9784;BME280;4931;44.874;-1.092;2022-12-18T05:15:27;100680.97;;;1.10;100.00
9784;BME280;4931;44.874;-1.092;2022-12-18T05:17:52;100685.31;;;1.11;100.00
9784;BME280;4931;44.874;-1.092;2022-12-18T05:20:18;100685.31;;;1.11;100.00
9784;BME280;4931;44.874;-1.092;2022-12-18T05:22:44;100665.19;;;1.07;100.00
9784;BME280;4931;44.874;-1.092;2022-12-18T05:25:09;100664.75;;;1.10;100.00
9784;BME280;4931;44.874;-1.092;2022-12-18T05:27:35;100665.53;;;1.18;100.00
9784;BME280;4931;44.874;-1.092;2022-12-18T05:30:00;100661.16;;;1.16;100.00
9784;BME280;4931;44.874;-1.092;2022-12-18T05:32:26;100669.44;;;1.22;100.00
9784;BME280;4931;44.874;-1.092;2022-12-18T05:34:51;100674.91;;;1.15;100.00
9784;BME280;4931;44.874;-1.092;2022-12-18T05:37:17;100682.38;;;1.20;100.00
9784;BME280;4931;44.874;-1.092;2022-12-18T05:39:43;100696.03;;;1.25;100.00
9784;BME280;4931;44.874;-1.092;2022-12-18T05:42:08;100679.03;;;1.18;100.00
9784;BME280;4931;44.874;-1.092;2022-12-18T05:44:35;100679.03;;;1.18;100.00
9784;BME280;4931;44.874;-1.092;2022-12-18T05:47:00;100679.50;;;1.14;100.00
9784;BME280;4931;44.874;-1.092;2022-12-18T05:49:26;100684.84;;;1.21;100.00
9784;BME280;4931;44.874;-1.092;2022-12-18T05:51:51;100676.97;;;1.13;100.00
9784;BME280;4931;44.874;-1.092;2022-12-18T05:54:17;100681.13;;;1.15;100.00
9784;BME280;4931;44.874;-1.092;2022-12-18T05:56:42;100684.00;;;1.21;100.00
9784;BME280;4931;44.874;-1.092;2022-12-18T05:59:08;100689.41;;;1.21;100.00
9784;BME280;4931;44.874;-1.092;2022-12-18T06:01:34;100685.66;;;1.22;100.00
9784;BME280;4931;44.874;-1.092;2022-12-18T06:03:59;100670.31;;;1.15;100.00
9784;BME280;4931;44.874;-1.092;2022-12-18T06:06:26;100685.25;;;1.18;100.00
9784;BME280;4931;44.874;-1.092;2022-12-18T06:08:53;100670.34;;;1.09;100.00
9784;BME280;4931;44.874;-1.092;2022-12-18T06:11:22;100685.25;;;1.18;100.00
9784;BME280;4931;44.874;-1.092;2022-12-18T06:13:55;100678.81;;;1.19;100.00
9784;BME280;4931;44.874;-1.092;2022-12-18T06:16:21;100678.16;;;1.24;100.00
9784;BME280;4931;44.874;-1.092;2022-12-18T06:18:47;100670.47;;;1.21;100.00
9784;BME280;4931;44.874;-1.092;2022-12-18T06:21:13;100683.56;;;1.24;100.00
9784;BME280;4931;44.874;-1.092;2022-12-18T06:23:38;100678.97;;;1.24;100.00
9784;BME280;4931;44.874;-1.092;2022-12-18T06:26:06;100676.69;;;1.28;100.00
9784;BME280;4931;44.874;-1.092;2022-12-18T06:28:31;100683.56;;;1.24;100.00
9784;BME280;4931;44.874;-1.092;2022-12-18T06:30:57;100687.03;;;1.31;100.00
9784;BME280;4931;44.874;-1.092;2022-12-18T06:33:26;100695.16;;;1.31;100.00
9784;BME280;4931;44.874;-1.092;2022-12-18T06:35:52;100684.78;;;1.28;100.00
9784;BME280;4931;44.874;-1.092;2022-12-18T06:38:17;100681.47;;;1.26;100.00
9784;BME280;4931;44.874;-1.092;2022-12-18T06:40:43;100674.91;;;1.15;100.00
9784;BME280;4931;44.874;-1.092;2022-12-18T06:43:09;100664.75;;;1.10;100.00
9784;BME280;4931;44.874;-1.092;2022-12-18T06:45:34;100688.59;;;1.20;100.00
9784;BME280;4931;44.874;-1.092;2022-12-18T06:48:00;100673.22;;;1.14;100.00
9784;BME280;4931;44.874;-1.092;2022-12-18T06:50:25;100679.91;;;1.11;100.00
9784;BME280;4931;44.874;-1.092;2022-12-18T06:52:51;100691.50;;;1.19;100.00
9784;BME280;4931;44.874;-1.092;2022-12-18T06:55:17;100679.50;;;1.14;100.00
9784;BME280;4931;44.874;-1.092;2022-12-18T06:57:42;100677.38;;;1.16;100.00
9784;BME280;4931;44.874;-1.092;2022-12-18T07:00:08;100671.22;;;1.09;100.00
9784;BME280;4931;44.874;-1.092;2022-12-18T07:02:34;100669.94;;;1.12;100.00
9784;BME280;4931;44.874;-1.092;2022-12-18T07:05:00;100669.03;;;1.18;100.00
9784;BME280;4931;44.874;-1.092;2022-12-18T07:07:25;100667.88;;;1.07;100.00
9784;BME280;4931;44.874;-1.092;2022-12-18T07:09:51;100671.81;;;1.11;100.00
9784;BME280;4931;44.874;-1.092;2022-12-18T07:12:17;100681.56;;;1.12;100.00
9784;BME280;4931;44.874;-1.092;2022-12-18T07:14:42;100686.16;;;1.12;100.00
9784;BME280;4931;44.874;-1.092;2022-12-18T07:17:08;100678.09;;;1.05;100.00
9784;BME280;4931;44.874;-1.092;2022-12-18T07:19:34;100684.97;;;1.01;100.00
9784;BME280;4931;44.874;-1.092;2022-12-18T07:21:59;100692.66;;;1.04;100.00
9784;BME280;4931;44.874;-1.092;2022-12-18T07:24:25;100691.59;;;1.05;100.00
9784;BME280;4931;44.874;-1.092;2022-12-18T07:26:51;100698.66;;;1.06;100.00
9784;BME280;4931;44.874;-1.092;2022-12-18T07:29:16;100705.97;;;0.99;100.00
9784;BME280;4931;44.874;-1.092;2022-12-18T07:31:42;100714.66;;;1.08;100.00
9784;BME280;4931;44.874;-1.092;2022-12-18T07:34:11;100714.09;;;0.99;100.00
9784;BME280;4931;44.874;-1.092;2022-12-18T07:36:38;100729.63;;;1.10;100.00
9784;BME280;4931;44.874;-1.092;2022-12-18T07:39:03;100724.84;;;1.06;100.00
9784;BME280;4931;44.874;-1.092;2022-12-18T07:41:28;100724.44;;;1.02;100.00
9784;BME280;4931;44.874;-1.092;2022-12-18T07:43:54;100721.56;;;0.97;100.00
9784;BME280;4931;44.874;-1.092;2022-12-18T07:46:19;100718.81;;;1.04;100.00
9784;BME280;4931;44.874;-1.092;2022-12-18T07:48:45;100724.84;;;1.06;100.00
9784;BME280;4931;44.874;-1.092;2022-12-18T07:51:11;100725.34;;;0.96;100.00
9784;BME280;4931;44.874;-1.092;2022-12-18T07:53:36;100729.03;;;1.02;100.00
9784;BME280;4931;44.874;-1.092;2022-12-18T07:56:08;100737.31;;;1.07;100.00
9784;BME280;4931;44.874;-1.092;2022-12-18T07:58:34;100723.28;;;0.91;100.00
9784;BME280;4931;44.874;-1.092;2022-12-18T08:01:07;100723.66;;;0.95;100.00
9784;BME280;4931;44.874;-1.092;2022-12-18T08:03:33;100717.47;;;0.88;100.00
9784;BME280;4931;44.874;-1.092;2022-12-18T08:06:03;100722.44;;;0.91;100.00
9784;BME280;4931;44.874;-1.092;2022-12-18T08:08:29;100724.09;;;0.92;100.00
9784;BME280;4931;44.874;-1.092;2022-12-18T08:10:55;100721.16;;;1.00;100.00
9784;BME280;4931;44.874;-1.092;2022-12-18T08:13:21;100727.78;;;1.04;100.00
9784;BME280;4931;44.874;-1.092;2022-12-18T08:15:54;100702.06;;;0.95;100.00
9784;BME280;4931;44.874;-1.092;2022-12-18T08:18:20;100687.94;;;0.93;100.00
9784;BME280;4931;44.874;-1.092;2022-12-18T08:20:45;100691.16;;;1.08;100.00
9784;BME280;4931;44.874;-1.092;2022-12-18T08:23:11;100691.78;;;1.10;100.00
9784;BME280;4931;44.874;-1.092;2022-12-18T08:25:38;100712.31;;;1.11;100.00
9784;BME280;4931;44.874;-1.092;2022-12-18T08:28:03;100711.03;;;1.21;100.00
9784;BME280;4931;44.874;-1.092;2022-12-18T08:30:29;100696.50;;;1.15;100.00
9784;BME280;4931;44.874;-1.092;2022-12-18T08:32:54;100708.44;;;1.32;100.00
9784;BME280;4931;44.874;-1.092;2022-12-18T08:35:19;100706.41;;;1.28;100.00
9784;BME280;4931;44.874;-1.092;2022-12-18T08:37:45;100710.03;;;1.40;100.00
9784;BME280;4931;44.874;-1.092;2022-12-18T08:40:10;100705.84;;;1.44;100.00
9784;BME280;4931;44.874;-1.092;2022-12-18T08:42:36;100694.78;;;1.53;100.00
9784;BME280;4931;44.874;-1.092;2022-12-18T08:45:20;100709.94;;;1.54;100.00
9784;BME280;4931;44.874;-1.092;2022-12-18T08:47:45;100712.81;;;1.59;100.00
9784;BME280;4931;44.874;-1.092;2022-12-18T08:50:11;100719.75;;;1.73;100.00
9784;BME280;4931;44.874;-1.092;2022-12-18T08:52:37;100715.56;;;1.77;100.00
9784;BME280;4931;44.874;-1.092;2022-12-18T08:55:03;100723.47;;;1.79;100.00
9784;BME280;4931;44.874;-1.092;2022-12-18T08:57:28;100706.03;;;1.75;100.00
9784;BME280;4931;44.874;-1.092;2022-12-18T08:59:54;100719.47;;;1.81;100.00
9784;BME280;4931;44.874;-1.092;2022-12-18T09:02:19;100723.97;;;1.88;100.00
9784;BME280;4931;44.874;-1.092;2022-12-18T09:04:47;100728.75;;;1.92;100.00
9784;BME280;4931;44.874;-1.092;2022-12-18T09:07:12;100722.06;;;1.95;100.00
9784;BME280;4931;44.874;-1.092;2022-12-18T09:09:38;100716.19;;;1.98;100.00
9784;BME280;4931;44.874;-1.092;2022-12-18T09:12:03;100732.50;;;2.10;100.00
9784;BME280;4931;44.874;-1.092;2022-12-18T09:14:29;100715.16;;;2.18;100.00
9784;BME280;4931;44.874;-1.092;2022-12-18T09:16:54;100716.59;;;2.20;100.00
9784;BME280;4931;44.874;-1.092;2022-12-18T09:19:20;100708.75;;;2.30;100.00
9784;BME280;4931;44.874;-1.092;2022-12-18T09:21:45;100711.41;;;2.37;100.00
9784;BME280;4931;44.874;-1.092;2022-12-18T09:24:15;100712.16;;;2.44;100.00
9784;BME280;4931;44.874;-1.092;2022-12-18T09:26:40;100691.06;;;2.46;100.00
9784;BME280;4931;44.874;-1.092;2022-12-18T09:29:06;100713.31;;;2.67;100.00
9784;BME280;4931;44.874;-1.092;2022-12-18T09:31:33;100716.47;;;2.82;100.00
9784;BME280;4931;44.874;-1.092;2022-12-18T09:33:58;100707.09;;;2.97;100.00
9784;BME280;4931;44.874;-1.092;2022-12-18T09:36:24;100718.44;;;3.18;100.00
9784;BME280;4931;44.874;-1.092;2022-12-18T09:38:49;100700.34;;;3.30;100.00
9784;BME280;4931;44.874;-1.092;2022-12-18T09:41:17;100714.50;;;3.56;100.00
9784;BME280;4931;44.874;-1.092;2022-12-18T09:43:51;100715.38;;;3.68;100.00
9784;BME280;4931;44.874;-1.092;2022-12-18T09:46:26;100713.22;;;3.82;100.00
9784;BME280;4931;44.874;-1.092;2022-12-18T09:48:55;100715.50;;;3.73;100.00
9784;BME280;4931;44.874;-1.092;2022-12-18T09:51:40;100724.69;;;3.96;100.00
9784;BME280;4931;44.874;-1.092;2022-12-18T09:54:18;100723.84;;;4.19;100.00
9784;BME280;4931;44.874;-1.092;2022-12-18T09:56:45;100727.50;;;4.25;100.00
9784;BME280;4931;44.874;-1.092;2022-12-18T10:01:44;100728.41;;;4.42;100.00
9784;BME280;4931;44.874;-1.092;2022-12-18T10:04:10;100725.50;;;4.61;100.00
9784;BME280;4931;44.874;-1.092;2022-12-18T10:06:44;100749.13;;;4.72;100.00
9784;BME280;4931;44.874;-1.092;2022-12-18T10:12:07;100766.25;;;5.13;100.00
9784;BME280;4931;44.874;-1.092;2022-12-18T10:21:11;100806.91;;;5.83;100.00
9784;BME280;4931;44.874;-1.092;2022-12-18T10:26:41;100835.34;;;6.04;100.00
9784;BME280;4931;44.874;-1.092;2022-12-18T10:29:12;100838.69;;;6.11;100.00
9784;BME280;4931;44.874;-1.092;2022-12-18T10:31:38;100849.75;;;6.22;100.00
9784;BME280;4931;44.874;-1.092;2022-12-18T10:34:04;100858.66;;;6.17;100.00
9784;BME280;4931;44.874;-1.092;2022-12-18T10:36:29;100865.78;;;6.18;100.00
9784;BME280;4931;44.874;-1.092;2022-12-18T10:39:14;100852.06;;;6.30;100.00
9784;BME280;4931;44.874;-1.092;2022-12-18T10:41:40;100857.25;;;6.31;100.00
9784;BME280;4931;44.874;-1.092;2022-12-18T10:44:19;100857.75;;;6.28;100.00
9784;BME280;4931;44.874;-1.092;2022-12-18T10:46:47;100869.47;;;6.29;100.00
9784;BME280;4931;44.874;-1.092;2022-12-18T10:49:31;100859.88;;;6.43;100.00
9784;BME280;4931;44.874;-1.092;2022-12-18T10:52:13;100846.84;;;6.45;100.00
9784;BME280;4931;44.874;-1.092;2022-12-18T10:54:45;100853.16;;;6.68;100.00
9784;BME280;4931;44.874;-1.092;2022-12-18T10:59:55;100836.19;;;7.05;100.00
9784;BME280;4931;44.874;-1.092;2022-12-18T11:02:37;100832.09;;;7.30;100.00
9784;BME280;4931;44.874;-1.092;2022-12-18T11:05:07;100847.19;;;7.38;100.00
9784;BME280;4931;44.874;-1.092;2022-12-18T11:07:49;100854.75;;;7.53;100.00
9784;BME280;4931;44.874;-1.092;2022-12-18T11:10:22;100853.59;;;7.76;100.00
9784;BME280;4931;44.874;-1.092;2022-12-18T11:12:48;100878.97;;;8.04;100.00
9784;BME280;4931;44.874;-1.092;2022-12-18T11:15:24;100876.63;;;8.18;100.00
9784;BME280;4931;44.874;-1.092;2022-12-18T11:17:52;100881.38;;;8.27;100.00
9784;BME280;4931;44.874;-1.092;2022-12-18T11:20:32;100885.66;;;8.51;100.00
9784;BME280;4931;44.874;-1.092;2022-12-18T11:23:05;100833.59;;;10.19;100.00
9784;BME280;4931;44.874;-1.092;2022-12-18T11:25:36;100895.53;;;9.94;100.00
9784;BME280;4931;44.874;-1.092;2022-12-18T11:28:05;100930.47;;;9.45;100.00
9784;BME280;4931;44.874;-1.092;2022-12-18T11:30:35;100944.41;;;9.39;100.00
9784;BME280;4931;44.874;-1.092;2022-12-18T11:33:05;100953.50;;;9.44;100.00
9784;BME280;4931;44.874;-1.092;2022-12-18T11:38:30;100977.09;;;9.66;100.00
9784;BME280;4931;44.874;-1.092;2022-12-18T11:41:24;100998.47;;;9.59;100.00
9784;BME280;4931;44.874;-1.092;2022-12-18T11:43:59;101023.16;;;9.74;100.00
9784;BME280;4931;44.874;-1.092;2022-12-18T11:46:32;101037.41;;;9.76;100.00
9784;BME280;4931;44.874;-1.092;2022-12-18T11:49:03;101037.97;;;9.73;100.00
9784;BME280;4931;44.874;-1.092;2022-12-18T11:51:41;101041.25;;;9.75;100.00
9784;BME280;4931;44.874;-1.092;2022-12-18T11:54:15;101039.16;;;10.08;100.00
9784;BME280;4931;44.874;-1.092;2022-12-18T12:01:53;101041.47;;;10.48;100.00
9784;BME280;4931;44.874;-1.092;2022-12-18T12:07:22;101052.47;;;10.58;100.00
9784;BME280;4931;44.874;-1.092;2022-12-18T12:10:12;101052.22;;;10.85;100.00
9784;BME280;4931;44.874;-1.092;2022-12-18T12:20:48;101061.25;;;11.11;100.00
9784;BME280;4931;44.874;-1.092;2022-12-18T12:39:51;101077.41;;;12.25;100.00
9784;BME280;4931;44.874;-1.092;2022-12-18T12:42:41;101075.66;;;12.44;100.00
9784;BME280;4931;44.874;-1.092;2022-12-18T12:45:49;101076.16;;;12.52;100.00
9784;BME280;4931;44.874;-1.092;2022-12-18T12:48:22;101090.16;;;12.05;100.00
9784;BME280;4931;44.874;-1.092;2022-12-18T12:50:50;101079.13;;;12.10;100.00
9784;BME280;4931;44.874;-1.092;2022-12-18T12:53:23;101081.13;;;11.89;100.00
9784;BME280;4931;44.874;-1.092;2022-12-18T12:55:52;101095.97;;;11.88;100.00
9784;BME280;4931;44.874;-1.092;2022-12-18T12:58:36;101074.81;;;11.99;100.00
9784;BME280;4931;44.874;-1.092;2022-12-18T13:01:24;101074.81;;;11.89;100.00
9784;BME280;4931;44.874;-1.092;2022-12-18T13:04:20;101063.84;;;11.84;100.00
9784;BME280;4931;44.874;-1.092;2022-12-18T13:07:03;101077.00;;;11.92;100.00
9784;BME280;4931;44.874;-1.092;2022-12-18T13:09:33;101074.88;;;11.68;100.00
9784;BME280;4931;44.874;-1.092;2022-12-18T13:12:18;101056.72;;;11.67;100.00
9784;BME280;4931;44.874;-1.092;2022-12-18T13:15:13;101046.88;;;11.66;100.00
9784;BME280;4931;44.874;-1.092;2022-12-18T13:17:45;101042.22;;;11.51;100.00
9784;BME280;4931;44.874;-1.092;2022-12-18T13:20:12;101034.84;;;11.46;100.00
9784;BME280;4931;44.874;-1.092;2022-12-18T13:22:47;101023.28;;;11.50;100.00
9784;BME280;4931;44.874;-1.092;2022-12-18T13:25:37;101003.47;;;11.58;100.00
9784;BME280;4931;44.874;-1.092;2022-12-18T13:28:17;100999.94;;;11.47;100.00
9784;BME280;4931;44.874;-1.092;2022-12-18T13:30:53;100987.25;;;11.61;100.00
9784;BME280;4931;44.874;-1.092;2022-12-18T13:38:41;100948.28;;;11.49;100.00
9784;BME280;4931;44.874;-1.092;2022-12-18T13:43:43;100955.66;;;11.59;100.00
9784;BME280;4931;44.874;-1.092;2022-12-18T13:48:57;100938.00;;;11.75;100.00
9784;BME280;4931;44.874;-1.092;2022-12-18T13:51:24;100939.63;;;11.76;100.00
9784;BME280;4931;44.874;-1.092;2022-12-18T13:53:51;100941.81;;;11.79;100.00
9784;BME280;4931;44.874;-1.092;2022-12-18T13:56:22;100930.81;;;11.85;100.00
9784;BME280;4931;44.874;-1.092;2022-12-18T13:59:32;100912.56;;;12.04;100.00
9784;BME280;4931;44.874;-1.092;2022-12-18T14:02:04;100944.56;;;11.79;100.00
9784;BME280;4931;44.874;-1.092;2022-12-18T14:04:34;100947.53;;;11.88;100.00
9784;BME280;4931;44.874;-1.092;2022-12-18T14:07:22;100952.34;;;11.62;100.00
9784;BME280;4931;44.874;-1.092;2022-12-18T14:09:53;100951.03;;;11.49;100.00
9784;BME280;4931;44.874;-1.092;2022-12-18T14:12:25;100943.63;;;11.44;100.00
9784;BME280;4931;44.874;-1.092;2022-12-18T14:17:55;100937.84;;;11.46;100.00
9784;BME280;4931;44.874;-1.092;2022-12-18T14:20:24;100933.25;;;11.31;100.00
9784;BME280;4931;44.874;-1.092;2022-12-18T14:22:50;100938.19;;;11.34;100.00
9784;BME280;4931;44.874;-1.092;2022-12-18T14:25:19;100938.75;;;11.31;100.00
9784;BME280;4931;44.874;-1.092;2022-12-18T14:27:51;100932.69;;;11.34;100.00
9784;BME280;4931;44.874;-1.092;2022-12-18T14:35:35;100931.56;;;11.40;100.00
9784;BME280;4931;44.874;-1.092;2022-12-18T14:40:59;100936.50;;;11.43;100.00
9784;BME280;4931;44.874;-1.092;2022-12-18T14:43:27;100935.06;;;11.56;100.00
9784;BME280;4931;44.874;-1.092;2022-12-18T14:45:53;100935.09;;;11.46;100.00
9784;BME280;4931;44.874;-1.092;2022-12-18T14:48:41;100924.38;;;11.50;100.00